createdAt,value
2023-05-20T00:01:56.135Z,22.40
2023-05-20T00:04:23.215Z,22.30
2023-05-20T00:06:50.063Z,22.30
2023-05-20T00:09:19.653Z,22.30
2023-05-20T00:11:46.769Z,22.30
2023-05-20T00:14:13.611Z,22.30
2023-05-20T00:16:40.482Z,22.20
2023-05-20T00:19:07.948Z,22.20
2023-05-20T00:21:34.894Z,22.20
2023-05-20T00:24:01.718Z,22.20
2023-05-20T00:26:29.473Z,22.20
2023-05-20T00:28:57.505Z,22.10
2023-05-20T00:31:24.434Z,22.10
2023-05-20T00:33:51.419Z,22.10
2023-05-20T00:36:18.207Z,22.10
2023-05-20T00:38:44.963Z,22.10
2023-05-20T00:41:12.250Z,22.00
2023-05-20T00:43:39.052Z,22.00
2023-05-20T00:46:06.030Z,22.00
2023-05-20T00:48:41.653Z,22.00
2023-05-20T00:51:10.124Z,22.00
2023-05-20T00:53:37.177Z,21.90
2023-05-20T00:56:05.140Z,21.90
2023-05-20T00:58:32.685Z,21.90
2023-05-20T01:00:59.562Z,21.90
2023-05-20T01:03:27.434Z,21.90
2023-05-20T01:05:54.551Z,21.90
2023-05-20T01:08:25.920Z,21.90
2023-05-20T01:11:02.812Z,21.80
2023-05-20T01:13:34.155Z,21.80
2023-05-20T01:16:01.669Z,21.80
2023-05-20T01:18:30.266Z,21.80
2023-05-20T01:21:01.576Z,21.80
2023-05-20T01:23:55.126Z,21.80
2023-05-20T01:26:22.005Z,21.70
2023-05-20T01:28:51.122Z,21.70
2023-05-20T01:31:24.999Z,21.70
2023-05-20T01:33:56.371Z,21.60
2023-05-20T01:36:23.348Z,21.60
2023-05-20T01:38:50.775Z,21.60
2023-05-20T01:41:17.916Z,21.60
2023-05-20T01:43:44.916Z,21.60
2023-05-20T01:46:11.740Z,21.60
2023-05-20T01:48:38.585Z,21.60
2023-05-20T01:51:05.528Z,21.50
2023-05-20T01:53:32.333Z,21.60
2023-05-20T01:55:59.198Z,21.50
2023-05-20T01:58:26.829Z,21.50
2023-05-20T02:00:53.704Z,21.50
2023-05-20T02:03:20.598Z,21.50
2023-05-20T02:05:47.446Z,21.50
2023-05-20T02:08:14.273Z,21.50
2023-05-20T02:10:41.042Z,21.50
2023-05-20T02:13:07.910Z,21.40
2023-05-20T02:15:35.290Z,21.40
2023-05-20T02:18:02.576Z,21.40
2023-05-20T02:20:29.617Z,21.40
2023-05-20T02:22:56.441Z,21.40
2023-05-20T02:25:23.211Z,21.40
2023-05-20T02:27:49.971Z,21.40
2023-05-20T02:30:17.362Z,21.30
2023-05-20T02:32:44.292Z,21.30
2023-05-20T02:35:12.141Z,21.30
2023-05-20T02:37:39.561Z,21.30
2023-05-20T02:40:09.221Z,21.30
2023-05-20T02:42:37.413Z,21.30
2023-05-20T02:45:04.640Z,21.30
2023-05-20T02:47:31.403Z,21.30
2023-05-20T02:49:58.206Z,21.20
2023-05-20T02:52:26.260Z,21.20
2023-05-20T02:54:53.213Z,21.20
2023-05-20T02:57:20.147Z,21.20
2023-05-20T02:59:46.933Z,21.20
2023-05-20T03:02:13.840Z,21.10
2023-05-20T03:04:41.111Z,21.10
2023-05-20T03:07:09.134Z,21.10
2023-05-20T03:09:36.139Z,21.10
2023-05-20T03:12:03.106Z,21.10
2023-05-20T03:14:30.470Z,21.10
2023-05-20T03:16:57.623Z,21.10
2023-05-20T03:19:24.567Z,21.00
2023-05-20T03:21:51.549Z,21.00
2023-05-20T03:24:18.435Z,21.00
2023-05-20T03:26:47.111Z,21.00
2023-05-20T03:29:14.069Z,21.00
2023-05-20T03:31:41.635Z,21.00
2023-05-20T03:34:08.509Z,21.00
2023-05-20T03:36:36.065Z,21.00
2023-05-20T03:39:04.552Z,20.90
2023-05-20T03:41:32.994Z,20.90
2023-05-20T03:43:59.927Z,20.90
2023-05-20T03:46:27.314Z,20.90
2023-05-20T03:48:54.179Z,20.90
2023-05-20T03:51:21.851Z,20.80
2023-05-20T03:53:50.178Z,20.80
2023-05-20T03:56:17.095Z,20.80
2023-05-20T03:58:44.305Z,20.80
2023-05-20T04:01:14.249Z,20.80
2023-05-20T04:03:44.604Z,20.80
2023-05-20T04:06:11.563Z,20.70
2023-05-20T04:08:38.497Z,20.70
2023-05-20T04:11:06.100Z,20.70
2023-05-20T04:13:33.069Z,20.70
2023-05-20T04:16:01.985Z,20.70
2023-05-20T04:18:31.751Z,20.60
2023-05-20T04:21:00.205Z,20.70
2023-05-20T04:23:27.195Z,20.60
2023-05-20T04:25:55.221Z,20.60
2023-05-20T04:28:23.962Z,20.60
2023-05-20T04:31:02.783Z,20.50
2023-05-20T04:33:30.998Z,20.50
2023-05-20T04:35:58.787Z,20.50
2023-05-20T04:38:32.374Z,20.60
2023-05-20T04:41:01.618Z,20.60
2023-05-20T04:43:31.272Z,20.60
2023-05-20T04:45:59.873Z,20.50
2023-05-20T04:48:27.471Z,20.60
2023-05-20T04:50:54.480Z,20.50
2023-05-20T04:53:24.044Z,20.50
2023-05-20T04:55:55.152Z,20.50
2023-05-20T04:58:24.308Z,20.50
2023-05-20T05:00:52.000Z,20.50
2023-05-20T05:03:18.978Z,20.50
2023-05-20T05:05:45.865Z,20.60
2023-05-20T05:08:12.736Z,20.50
2023-05-20T05:10:45.360Z,20.60
2023-05-20T05:13:12.273Z,20.60
2023-05-20T05:15:39.260Z,20.50
2023-05-20T05:18:06.308Z,20.50
2023-05-20T05:20:34.685Z,20.50
2023-05-20T05:23:01.540Z,20.60
2023-05-20T05:25:29.001Z,20.50
2023-05-20T05:27:58.430Z,20.50
2023-05-20T05:30:25.532Z,20.50
2023-05-20T05:32:52.546Z,20.50
2023-05-20T05:35:19.843Z,20.50
2023-05-20T05:37:46.674Z,20.50
2023-05-20T05:40:13.748Z,20.60
2023-05-20T05:42:40.548Z,20.50
2023-05-20T05:45:08.640Z,20.60
2023-05-20T05:47:37.049Z,20.50
2023-05-20T05:50:04.605Z,20.50
2023-05-20T05:52:33.750Z,20.60
2023-05-20T05:55:02.648Z,20.50
2023-05-20T05:57:30.710Z,20.60
2023-05-20T05:59:58.805Z,20.50
2023-05-20T06:02:27.422Z,20.50
2023-05-20T06:05:00.634Z,20.40
2023-05-20T06:07:30.118Z,20.30
2023-05-20T06:10:02.894Z,20.30
2023-05-20T06:12:32.401Z,20.30
2023-05-20T06:15:03.584Z,20.10
2023-05-20T06:17:30.703Z,20.10
2023-05-20T06:19:57.574Z,20.00
2023-05-20T06:22:29.438Z,19.90
2023-05-20T06:25:00.310Z,19.90
2023-05-20T06:27:27.784Z,19.90
2023-05-20T06:29:54.803Z,19.90
2023-05-20T06:32:22.892Z,19.90
2023-05-20T06:34:51.531Z,19.90
2023-05-20T06:37:18.875Z,19.90
2023-05-20T06:40:02.667Z,19.90
2023-05-20T06:42:50.055Z,20.00
2023-05-20T06:48:49.340Z,19.90
2023-05-20T06:51:33.989Z,19.90
2023-05-20T06:54:16.045Z,19.90
2023-05-20T06:56:44.522Z,20.00
2023-05-20T06:59:11.485Z,20.00
2023-05-20T07:01:39.194Z,20.10
2023-05-20T07:04:07.147Z,20.10
2023-05-20T07:06:34.565Z,20.10
2023-05-20T07:09:01.407Z,20.20
2023-05-20T07:11:28.776Z,20.20
2023-05-20T07:13:55.609Z,20.20
2023-05-20T07:16:24.883Z,20.20
2023-05-20T07:18:54.602Z,20.30
2023-05-20T07:21:21.491Z,20.40
2023-05-20T07:24:05.055Z,20.40
2023-05-20T07:26:33.757Z,20.50
2023-05-20T07:29:03.919Z,20.60
2023-05-20T07:31:31.623Z,20.60
2023-05-20T07:34:01.257Z,20.70
2023-05-20T07:39:41.022Z,20.90
2023-05-20T07:42:07.996Z,20.90
2023-05-20T07:44:36.658Z,21.00
2023-05-20T07:47:04.506Z,21.10
2023-05-20T07:49:31.318Z,21.10
2023-05-20T07:51:58.234Z,21.20
2023-05-20T07:54:25.164Z,21.30
2023-05-20T07:56:53.113Z,21.40
2023-05-20T07:59:20.178Z,21.50
2023-05-20T08:01:48.890Z,21.60
2023-05-20T08:04:17.692Z,21.60
2023-05-20T08:06:46.746Z,21.70
2023-05-20T08:09:21.743Z,21.80
2023-05-20T08:11:51.674Z,21.90
2023-05-20T08:14:18.560Z,22.00
2023-05-20T08:16:48.875Z,22.10
2023-05-20T08:19:15.959Z,22.20
2023-05-20T08:21:42.883Z,22.30
2023-05-20T08:24:09.783Z,22.40
2023-05-20T08:26:36.965Z,22.40
2023-05-20T08:29:03.882Z,22.50
2023-05-20T08:31:30.830Z,22.60
2023-05-20T08:33:59.457Z,22.70
2023-05-20T08:36:26.231Z,22.80
2023-05-20T08:38:53.054Z,23.00
2023-05-20T08:41:22.293Z,23.10
2023-05-20T08:43:50.194Z,23.20
2023-05-20T08:46:18.512Z,23.40
2023-05-20T08:48:45.926Z,23.50
2023-05-20T08:51:14.018Z,23.70
2023-05-20T08:53:40.815Z,23.80
2023-05-20T08:56:08.474Z,24.00
2023-05-20T08:58:35.393Z,24.10
2023-05-20T09:01:02.284Z,24.20
2023-05-20T09:03:29.297Z,24.40
2023-05-20T09:06:07.603Z,24.50
2023-05-20T09:08:34.744Z,24.70
2023-05-20T09:11:01.864Z,24.80
2023-05-20T09:13:31.587Z,24.90
2023-05-20T09:16:01.004Z,25.10
2023-05-20T09:18:28.012Z,25.20
2023-05-20T09:20:54.830Z,25.30
2023-05-20T09:23:25.955Z,25.50
2023-05-20T09:25:53.196Z,25.60
2023-05-20T09:28:24.150Z,25.70
2023-05-20T09:30:51.805Z,25.80
2023-05-20T09:33:18.568Z,25.90
2023-05-20T09:35:45.967Z,26.10
2023-05-20T09:38:13.135Z,26.20
2023-05-20T09:40:41.180Z,26.30
2023-05-20T09:43:08.734Z,26.40
2023-05-20T09:45:36.192Z,26.50
2023-05-20T09:48:04.287Z,26.60
2023-05-20T09:50:32.154Z,26.70
2023-05-20T09:53:03.648Z,26.70
2023-05-20T09:55:31.002Z,26.70
2023-05-20T09:58:02.069Z,26.70
2023-05-20T10:00:29.012Z,26.60
2023-05-20T10:02:56.866Z,26.60
2023-05-20T10:05:33.783Z,26.70
2023-05-20T10:08:15.669Z,26.70
2023-05-20T10:11:11.076Z,26.70
2023-05-20T10:14:16.544Z,26.80
2023-05-20T10:17:10.141Z,26.80
2023-05-20T10:19:37.109Z,26.90
2023-05-20T10:22:11.698Z,26.90
2023-05-20T10:24:42.797Z,27.00
2023-05-20T10:27:17.216Z,27.10
2023-05-20T10:29:52.101Z,27.10
2023-05-20T10:32:32.559Z,27.10
2023-05-20T10:35:09.165Z,27.20
2023-05-20T10:37:46.274Z,27.20
2023-05-20T10:40:18.899Z,27.20
2023-05-20T10:42:46.296Z,27.20
2023-05-20T10:45:24.272Z,27.20
2023-05-20T10:47:56.839Z,27.20
2023-05-20T10:50:29.103Z,27.20
2023-05-20T10:53:04.753Z,27.20
2023-05-20T10:55:39.032Z,27.20
2023-05-20T10:58:06.831Z,27.20
2023-05-20T11:00:37.718Z,27.10
2023-05-20T11:03:06.540Z,27.10
2023-05-20T11:05:33.748Z,27.00
2023-05-20T11:08:04.356Z,26.90
2023-05-20T11:10:34.594Z,26.90
2023-05-20T11:13:02.636Z,26.90
2023-05-20T11:15:30.828Z,26.90
2023-05-20T11:18:04.069Z,26.80
2023-05-20T11:20:35.275Z,26.90
2023-05-20T11:23:03.485Z,26.80
2023-05-20T11:25:30.517Z,26.80
2023-05-20T11:27:57.305Z,26.80
2023-05-20T11:30:24.292Z,26.90
2023-05-20T11:33:01.680Z,27.00
2023-05-20T11:35:30.525Z,27.10
2023-05-20T11:38:09.073Z,27.20
2023-05-20T11:40:49.142Z,27.30
2023-05-20T11:43:17.435Z,27.30
2023-05-20T11:45:46.470Z,27.40
2023-05-20T11:48:15.678Z,27.50
2023-05-20T11:50:44.773Z,27.40
2023-05-20T11:53:15.458Z,27.50
2023-05-20T11:55:47.202Z,27.50
2023-05-20T11:58:24.619Z,27.50
2023-05-20T12:00:59.164Z,27.50
2023-05-20T12:03:29.090Z,27.50
2023-05-20T12:05:56.200Z,27.40
2023-05-20T12:08:23.041Z,27.40
2023-05-20T12:10:49.965Z,27.40
2023-05-20T12:13:16.788Z,27.40
2023-05-20T12:15:43.674Z,27.40
2023-05-20T12:18:11.292Z,27.50
2023-05-20T12:20:38.911Z,27.50
2023-05-20T12:23:05.759Z,27.50
2023-05-20T12:25:32.617Z,27.50
2023-05-20T12:27:59.571Z,27.50
2023-05-20T12:30:26.340Z,27.50
2023-05-20T12:32:53.580Z,27.40
2023-05-20T12:35:27.357Z,27.50
2023-05-20T12:37:54.145Z,27.60
2023-05-20T12:40:20.976Z,27.60
2023-05-20T12:42:47.776Z,27.70
2023-05-20T12:45:14.659Z,27.70
2023-05-20T12:47:41.468Z,27.80
2023-05-20T12:50:08.849Z,27.80
2023-05-20T12:52:35.724Z,27.80
2023-05-20T12:55:02.610Z,27.70
2023-05-20T12:57:29.590Z,27.80
2023-05-20T12:59:56.668Z,27.80
2023-05-20T13:02:23.554Z,27.80
2023-05-20T13:04:50.509Z,27.80
2023-05-20T13:07:17.304Z,27.80
2023-05-20T13:09:45.023Z,27.80
2023-05-20T13:12:11.792Z,27.80
2023-05-20T13:14:38.557Z,27.80
2023-05-20T13:17:05.554Z,27.80
2023-05-20T13:19:32.384Z,27.80
2023-05-20T13:21:59.524Z,27.80
2023-05-20T13:24:26.494Z,27.70
2023-05-20T13:26:53.244Z,27.80
2023-05-20T13:29:20.081Z,27.70
2023-05-20T13:31:47.937Z,27.70
2023-05-20T13:34:14.752Z,27.70
2023-05-20T13:36:41.601Z,27.60
2023-05-20T13:39:08.391Z,27.60
2023-05-20T13:41:35.152Z,27.70
2023-05-20T13:44:01.928Z,27.60
2023-05-20T13:46:28.741Z,27.60
2023-05-20T13:48:55.528Z,27.60
2023-05-20T13:51:22.435Z,27.70
2023-05-20T13:53:49.260Z,27.70
2023-05-20T13:56:16.259Z,27.60
2023-05-20T13:58:43.156Z,27.70
2023-05-20T14:01:12.457Z,27.70
2023-05-20T14:03:40.922Z,27.70
2023-05-20T14:06:08.212Z,27.60
2023-05-20T14:08:35.049Z,27.70
2023-05-20T14:11:01.933Z,27.60
2023-05-20T14:13:28.837Z,27.60
2023-05-20T14:15:55.784Z,27.60
2023-05-20T14:18:22.794Z,27.50
2023-05-20T14:20:49.679Z,27.50
2023-05-20T14:23:16.629Z,27.50
2023-05-20T14:25:43.420Z,27.50
2023-05-20T14:28:10.236Z,27.50
2023-05-20T14:30:37.724Z,27.50
2023-05-20T14:33:04.852Z,27.40
2023-05-20T14:35:31.605Z,27.50
2023-05-20T14:37:59.546Z,27.40
2023-05-20T14:40:26.324Z,27.40
2023-05-20T14:42:53.132Z,27.40
2023-05-20T14:45:20.398Z,27.30
2023-05-20T14:47:47.273Z,27.30
2023-05-20T14:50:14.094Z,27.30
2023-05-20T14:52:40.885Z,27.30
2023-05-20T14:55:08.296Z,27.30
2023-05-20T14:57:35.198Z,27.30
2023-05-20T15:00:02.001Z,27.20
2023-05-20T15:02:28.885Z,27.30
2023-05-20T15:04:55.722Z,27.30
2023-05-20T15:07:22.544Z,27.30
2023-05-20T15:09:50.018Z,27.30
2023-05-20T15:12:16.783Z,27.20
2023-05-20T15:14:43.630Z,27.20
2023-05-20T15:17:10.544Z,27.20
2023-05-20T15:19:39.731Z,27.20
2023-05-20T15:22:08.144Z,27.20
2023-05-20T15:24:34.927Z,27.30
2023-05-20T15:27:01.694Z,27.30
2023-05-20T15:29:28.454Z,27.30
2023-05-20T15:31:55.416Z,27.30
2023-05-20T15:34:22.209Z,27.30
2023-05-20T15:36:48.997Z,27.30
2023-05-20T15:39:16.037Z,27.20
2023-05-20T15:41:43.262Z,27.20
2023-05-20T15:44:10.055Z,27.20
2023-05-20T15:46:36.984Z,27.20
2023-05-20T15:49:04.889Z,27.10
2023-05-20T15:51:31.704Z,27.00
2023-05-20T15:53:58.497Z,27.00
2023-05-20T15:56:25.348Z,27.00
2023-05-20T15:58:52.163Z,27.00
2023-05-20T16:01:19.002Z,27.00
2023-05-20T16:03:45.847Z,26.90
2023-05-20T16:06:12.705Z,26.90
2023-05-20T16:08:40.758Z,26.90
2023-05-20T16:11:08.180Z,26.90
2023-05-20T16:13:34.979Z,26.90
2023-05-20T16:16:02.113Z,27.00
2023-05-20T16:18:29.644Z,27.00
2023-05-20T16:20:57.240Z,27.10
2023-05-20T16:23:24.320Z,27.10
2023-05-20T16:25:51.434Z,27.10
2023-05-20T16:28:18.318Z,27.10
2023-05-20T16:30:45.215Z,27.20
2023-05-20T16:33:13.294Z,27.20
2023-05-20T16:35:40.474Z,27.30
2023-05-20T16:38:07.387Z,27.30
2023-05-20T16:40:34.492Z,27.30
2023-05-20T16:43:01.511Z,27.30
2023-05-20T16:45:28.413Z,27.40
2023-05-20T16:47:56.462Z,27.40
2023-05-20T16:50:23.408Z,27.40
2023-05-20T16:52:50.161Z,27.40
2023-05-20T16:55:16.989Z,27.40
2023-05-20T16:57:43.795Z,27.40
2023-05-20T17:00:11.512Z,27.40
2023-05-20T17:02:38.418Z,27.30
2023-05-20T17:05:05.865Z,27.30
2023-05-20T17:07:33.552Z,27.30
2023-05-20T17:10:00.909Z,27.30
2023-05-20T17:12:27.982Z,27.30
2023-05-20T17:14:54.776Z,27.20
2023-05-20T17:17:22.591Z,27.20
2023-05-20T17:19:49.403Z,27.20
2023-05-20T17:22:16.444Z,27.20
2023-05-20T17:24:43.209Z,27.20
2023-05-20T17:27:10.060Z,27.10
2023-05-20T17:29:36.834Z,27.10
2023-05-20T17:32:03.776Z,27.10
2023-05-20T17:34:30.556Z,27.10
2023-05-20T17:36:57.654Z,27.00
2023-05-20T17:39:24.409Z,27.00
2023-05-20T17:41:51.366Z,27.00
2023-05-20T17:44:18.191Z,27.00
2023-05-20T17:46:45.110Z,26.90
2023-05-20T17:49:11.939Z,26.90
2023-05-20T17:51:38.699Z,26.90
2023-05-20T17:54:06.143Z,26.80
2023-05-20T17:56:33.009Z,26.80
2023-05-20T17:58:59.751Z,26.80
2023-05-20T18:01:26.945Z,26.70
2023-05-20T18:03:54.017Z,26.70
2023-05-20T18:06:21.039Z,26.60
2023-05-20T18:08:47.804Z,26.60
2023-05-20T18:11:14.605Z,26.60
2023-05-20T18:13:41.350Z,26.60
2023-05-20T18:16:08.224Z,26.60
2023-05-20T18:18:34.971Z,26.50
2023-05-20T18:21:01.715Z,26.50
2023-05-20T18:23:28.491Z,26.40
2023-05-20T18:25:55.231Z,26.40
2023-05-20T18:28:22.432Z,26.40
2023-05-20T18:30:49.230Z,26.30
2023-05-20T18:33:16.055Z,26.30
2023-05-20T18:35:42.890Z,26.30
2023-05-20T18:38:09.654Z,26.30
2023-05-20T18:40:36.685Z,26.20
2023-05-20T18:43:03.639Z,26.20
2023-05-20T18:45:30.758Z,26.10
2023-05-20T18:47:59.330Z,26.10
2023-05-20T18:50:26.659Z,26.10
2023-05-20T18:52:53.417Z,26.10
2023-05-20T18:55:20.474Z,26.00
2023-05-20T18:57:47.336Z,25.90
2023-05-20T19:00:15.565Z,25.90
2023-05-20T19:02:42.594Z,25.80
2023-05-20T19:05:10.859Z,25.70
2023-05-20T19:07:38.478Z,25.60
2023-05-20T19:10:06.006Z,25.40
2023-05-20T19:12:33.370Z,25.40
2023-05-20T19:15:01.376Z,25.30
2023-05-20T19:17:28.252Z,25.20
2023-05-20T19:19:55.106Z,25.10
2023-05-20T19:22:21.974Z,25.00
2023-05-20T19:24:48.915Z,24.90
2023-05-20T19:27:15.705Z,24.80
2023-05-20T19:29:43.084Z,24.70
2023-05-20T19:32:09.929Z,24.70
2023-05-20T19:34:36.735Z,24.60
2023-05-20T19:37:03.618Z,24.50
2023-05-20T19:39:30.467Z,24.40
2023-05-20T19:41:57.400Z,24.40
2023-05-20T19:44:24.665Z,24.30
2023-05-20T19:46:52.813Z,24.20
2023-05-20T19:49:20.251Z,24.20
2023-05-20T19:51:47.123Z,24.20
2023-05-20T19:54:14.047Z,24.20
2023-05-20T19:56:40.975Z,24.20
2023-05-20T19:59:07.747Z,24.20
2023-05-20T20:01:34.752Z,24.20
2023-05-20T20:04:01.561Z,24.20
2023-05-20T20:06:28.342Z,24.20
2023-05-20T20:08:55.113Z,24.20
2023-05-20T20:11:22.528Z,24.20
2023-05-20T20:13:49.516Z,24.20
2023-05-20T20:16:17.393Z,24.20
2023-05-20T20:18:44.290Z,24.30
2023-05-20T20:21:11.419Z,24.30
2023-05-20T20:23:38.219Z,24.20
2023-05-20T20:26:06.414Z,24.30
2023-05-20T20:28:33.382Z,24.30
2023-05-20T20:31:00.198Z,24.20
2023-05-20T20:33:27.685Z,24.20
2023-05-20T20:35:54.841Z,24.20
2023-05-20T20:38:21.614Z,24.20
2023-05-20T20:40:49.816Z,24.20
2023-05-20T20:43:21.231Z,24.20
2023-05-20T20:45:50.940Z,24.20
2023-05-20T20:48:19.020Z,24.20
2023-05-20T20:50:47.710Z,24.20
2023-05-20T20:53:18.093Z,24.20
2023-05-20T20:55:46.275Z,24.10
2023-05-20T20:58:15.205Z,24.20
2023-05-20T21:00:44.464Z,24.20
2023-05-20T21:03:12.117Z,24.10
2023-05-20T21:05:39.153Z,24.00
2023-05-20T21:08:08.285Z,24.00
2023-05-20T21:10:37.086Z,23.90
2023-05-20T21:13:04.243Z,24.00
2023-05-20T21:15:31.057Z,24.00
2023-05-20T21:17:57.892Z,24.00
2023-05-20T21:20:25.318Z,23.90
2023-05-20T21:22:52.073Z,24.00
2023-05-20T21:25:18.922Z,23.90
2023-05-20T21:27:46.057Z,23.90
2023-05-20T21:30:12.976Z,23.90
2023-05-20T21:32:39.832Z,23.90
2023-05-20T21:35:07.216Z,23.90
2023-05-20T21:37:34.013Z,23.90
2023-05-20T21:40:00.813Z,23.80
2023-05-20T21:42:27.687Z,23.80
2023-05-20T21:44:54.538Z,23.80
2023-05-20T21:47:21.335Z,23.80
2023-05-20T21:49:48.247Z,23.80
2023-05-20T21:52:15.281Z,23.70
2023-05-20T21:54:42.047Z,23.70
2023-05-20T21:57:08.846Z,23.70
2023-05-20T21:59:35.949Z,23.70
2023-05-20T22:02:02.947Z,23.60
2023-05-20T22:04:29.878Z,23.60
2023-05-20T22:06:57.050Z,23.60
2023-05-20T22:09:23.889Z,23.60
2023-05-20T22:11:50.919Z,23.60
2023-05-20T22:14:18.060Z,23.50
2023-05-20T22:16:48.540Z,23.50
2023-05-20T22:19:16.363Z,23.50
2023-05-20T22:21:50.355Z,23.40
2023-05-20T22:24:18.276Z,23.40
2023-05-20T22:26:45.229Z,23.40
2023-05-20T22:29:12.101Z,23.40
2023-05-20T22:31:39.132Z,23.30
2023-05-20T22:34:06.018Z,23.30
2023-05-20T22:36:36.377Z,23.30
2023-05-20T22:39:04.479Z,23.30
2023-05-20T22:41:31.421Z,23.30
2023-05-20T22:43:59.291Z,23.30
2023-05-20T22:46:26.244Z,23.20
2023-05-20T22:48:53.335Z,23.20
2023-05-20T22:51:21.361Z,23.20
2023-05-20T22:53:48.678Z,23.20
2023-05-20T22:56:16.227Z,23.20
2023-05-20T22:58:43.814Z,23.10
2023-05-20T23:01:10.744Z,23.10
2023-05-20T23:03:38.059Z,23.10
2023-05-20T23:06:04.913Z,23.10
2023-05-20T23:08:31.764Z,23.10
2023-05-20T23:10:58.542Z,23.00
2023-05-20T23:13:25.419Z,23.00
2023-05-20T23:15:52.276Z,23.00
2023-05-20T23:18:19.126Z,23.00
2023-05-20T23:20:47.593Z,22.90
2023-05-20T23:23:14.463Z,22.90
2023-05-20T23:25:43.009Z,22.90
2023-05-20T23:28:11.248Z,22.90
2023-05-20T23:30:38.160Z,22.80
2023-05-20T23:33:05.011Z,22.80
2023-05-20T23:35:31.853Z,22.80
2023-05-20T23:37:58.592Z,22.80
2023-05-20T23:40:25.551Z,22.80
2023-05-20T23:42:52.329Z,22.80
2023-05-20T23:45:19.193Z,22.70
2023-05-20T23:47:46.039Z,22.70
2023-05-20T23:50:13.778Z,22.70
2023-05-20T23:52:40.587Z,22.70
2023-05-20T23:55:14.281Z,22.70
2023-05-20T23:57:41.413Z,22.70
